Tiempo atmosférico en la estación meteorológica de Autilla del Pino, Palencia (874 m.)



Fecha
DESCASC
Temp. máxima en grados centígrados (hora)
DESCASC
Temp. mínima en grados centígrados (hora)
DESCASC
Temp. media en grados centígrados
DESCASC
Racha de viento máxima en m/sg (hora)
DESCASC
Velocidad máxima media en intervalos de 10 minutos(hora)
DESCASC
Precipitaciones diarias en mm
DESCASC
Precipitaciones de 00:00 a 06:00 en mm
DESCASC
Precipitaciones de 06:00 a 12:00 en mm
DESCASC
Precipitaciones de 12:00 a 18:00 en mm
DESCASC
Precipitaciones de 18:00 a 24:00 en mm
DESCASC
15-08-2019 29.4 (19:40) 14 (07:40) 21.7 9.17 (22:00) 6.94 (23:40) 0 0 0 0 0
14-08-2019 29.5 (17:30) 9.7 (00:00) 19.6 7.78 (19:20) 4.72 (18:10) 0 0 0 0 0
13-08-2019 24.6 (19:10) 7.8 (00:00) 16.2 11.11 (01:20) 7.78 (01:20) 0 0 0 0 0
12-08-2019 21.8 (17:20) 6.3 (00:00) 14 10.83 (23:10) 8.33 (22:50) 0 0 0 0 0
11-08-2019 23.2 (18:50) 10.6 (00:00) 16.9 15.83 (21:40) 7.22 (21:50) 3.5 3.5 0 0 0
10-08-2019 26.9 (17:20) 11 (00:00) 18.9 10.56 (17:50) 6.67 (23:10) 0 0 0 0 0
09-08-2019 26.8 (17:00) 13 (00:00) 19.9 17.5 (12:40) 11.67 (12:40) 0 0 0 0 0
08-08-2019 30.8 (18:40) 16.7 (00:00) 23.8 14.17 (19:20) 10 (18:40) 0 0 0 0 0
07-08-2019 26.5 (13:10) 14.3 (00:00) 20.4 10.28 (20:20) 7.78 (15:40) 0 0 0 0 0
06-08-2019 30.5 (17:10) 13.3 (00:00) 21.9 11.39 (14:00) 7.22 (23:00) 0 0 0 0 0
05-08-2019 31.7 (17:30) 12.8 (00:00) 22.3 8.89 (17:10) 5.28 (01:20) 0 0 0 0 0
04-08-2019 32.3 (17:50) 13.9 (00:00) 23.1 9.72 (23:10) 6.39 (02:30) 0 0 0 0 0
03-08-2019 33.4 (16:00) 14.5 (00:00) 24 9.17 (22:40) 6.11 (22:40) 0 0 0 0 0
02-08-2019 31.1 (18:00) 12 (00:00) 21.6 10.28 (02:20) 8.33 (02:20) 0 0 0 0 0
01-08-2019 29.4 (18:30) 11.9 (00:00) 20.6 10.56 (22:20) 8.33 (03:00) 0 0 0 0 0
31-07-2019 27.8 (16:40) 8.6 (00:00) 18.2 10.28 (00:10) 7.78 (00:20) 0 0 0 0 0
30-07-2019 24 (17:40) 8.4 (00:00) 16.2 10.28 (23:30) 6.94 (22:50) 0 0 0 0 0
29-07-2019 26.5 (17:40) 10.8 (00:00) 18.7 12.22 (15:10) 8.33 (14:20) 0 0 0 0 0
28-07-2019 25.7 (19:20) 7.8 (00:00) 16.8 7.78 (00:30) 5.28 (00:30) 0 0 0 0 0
27-07-2019 21.9 (17:10) 11.9 (00:00) 16.9 12.22 (18:20) 8.61 (18:20) 0 0 0 0 0
26-07-2019 26.9 (16:50) 13.6 (00:00) 20.3 10.28 (19:50) 7.22 (21:00) 0 0 0 0 0
25-07-2019 32.8 (15:00) 16.5 (00:00) 24.6 13.06 (16:30) 8.61 (17:00) 0 0 0 0 0
24-07-2019 34.2 (17:20) 16 (00:00) 25.1 11.67 (16:20) 7.78 (17:20) 0 0 0 0 0
23-07-2019 34.8 (18:30) 16.9 (00:00) 25.8 19.44 (20:00) 10.28 (23:10) 5.7 0 0 0 5.7
22-07-2019 36.5 (15:40) 15.5 (00:00) 26 14.17 (20:30) 8.61 (19:40) 0.4 0 0 0 0.4
21-07-2019 33.7 (17:20) 14.4 (00:00) 24.1 17.78 (08:50) 8.61 (01:00) 0 0 0 0 0
20-07-2019 32.7 (18:30) 14.3 (00:00) 23.5 10.56 (23:40) 7.22 (23:40) 0 0 0 0 0
19-07-2019 33.9 (16:50) 13.6 (00:00) 23.8 11.67 (15:30) 7.22 (00:50) 0 0 0 0 0

Gráficas

Temp. máximas Temp. mínimas Temp. medias Precipitaciones Rachas de viento máximas Velocidades máximas media en intervalos de 10 minutos

Datos horarios

Fecha y hora oficial Temperatura (ºC) Velocidad del viento (km/h) Dirección del viento Racha (km/h) Dirección de racha Precipitación (mm) Presión (hPa) Tendencia (hPa) Humedad (%)
2019-08-17 23:00:00 23.7 15 Oeste 22 Oeste 0 -- -- 31
2019-08-17 22:00:00 23.6 14 Oeste 25 Oeste 0 -- -- 27
2019-08-17 21:00:00 28.1 19 Oeste 33 Oeste 0 -- -- 23
2019-08-17 20:00:00 30.9 24 Oeste 36 Oeste 0 -- -- 23
2019-08-17 19:00:00 31.8 20 Oeste 35 Oeste 0 -- -- 23
2019-08-17 18:00:00 32.4 23 Oeste 36 Oeste 0 -- -- 22
2019-08-17 17:00:00 32.2 15 Oeste 36 Noroeste 0 -- -- 22
2019-08-17 16:00:00 31 13 Oeste 31 Oeste 0 -- -- 23
2019-08-17 15:00:00 31.3 15 Oeste 35 Oeste 0 -- -- 24
2019-08-17 14:00:00 28.9 11 Oeste 28 Sudoeste 0 -- -- 31
2019-08-17 13:00:00 27.5 10 Sudoeste 22 Oeste 0 -- -- 34
2019-08-17 12:00:00 25.4 11 Oeste 19 Oeste 0 -- -- 43
2019-08-17 11:00:00 22.4 14 Oeste 23 Noroeste 0 -- -- 49
2019-08-17 10:00:00 19.9 17 Noroeste 23 Oeste 0 -- -- 61
2019-08-17 09:00:00 18.3 19 Oeste 24 Oeste 0 -- -- 68
2019-08-17 08:00:00 11.3 8 Sudoeste 10 Sudoeste 0 -- -- 82
2019-08-17 07:00:00 10.7 6 Oeste 8 Oeste 0 -- -- 81
2019-08-17 06:00:00 12.6 0 Calma 6 Nordeste 0 -- -- 76
2019-08-17 05:00:00 14.3 4 Norte 12 Noroeste 0 -- -- 74
2019-08-17 04:00:00 14.6 8 Noroeste 10 Noroeste 0 -- -- 70
2019-08-17 03:00:00 15.9 7 Nordeste 13 Nordeste 0 -- -- 66
2019-08-17 02:00:00 17.7 12 Nordeste 22 Norte 0 -- -- 60
2019-08-17 01:00:00 19.3 19 Noroeste 26 Noroeste 0 -- -- 37
2019-08-17 00:00:00 21.8 18 Noroeste 28 Oeste 0 -- -- 32
2019-08-16 23:00:00 20.6 10 Sudoeste 18 Sudoeste 0 -- -- 28
2019-08-16 22:00:00 26.5 3 Este 7 Norte 0 -- -- 25
2019-08-16 21:00:00 27 6 Noroeste 19 Noroeste 0 -- -- 24
2019-08-16 20:00:00 30.4 13 Noroeste 30 Norte 0 -- -- 24
2019-08-16 19:00:00 31.3 16 Noroeste 27 Oeste 0 -- -- 24
2019-08-16 18:00:00 30.9 14 Noroeste 33 Oeste 0 -- -- 24
2019-08-16 17:00:00 31.2 17 Oeste 36 Oeste 0 -- -- 27
2019-08-16 16:00:00 31 17 Oeste 33 Oeste 0 -- -- 30
2019-08-16 15:00:00 30 4 Noroeste 28 Oeste 0 -- -- 31
2019-08-16 14:00:00 29.3 10 Oeste 18 Oeste 0 -- -- 33
2019-08-16 13:00:00 28.5 3 Oeste 14 Oeste 0 -- -- 35
2019-08-16 12:00:00 25.6 2 Oeste 13 Sudeste 0 -- -- 39
2019-08-16 11:00:00 22.2 9 Sudeste 18 Este 0 -- -- 47
2019-08-16 10:00:00 18.9 12 Este 17 Este 0 -- -- 58
2019-08-16 09:00:00 16.4 12 Este 16 Este 0 -- -- 70
2019-08-16 08:00:00 13.4 12 Este 17 Este 0 -- -- 85
2019-08-16 07:00:00 12.5 9 Este 12 Este 0 -- -- 91
2019-08-16 06:00:00 12.4 8 Nordeste 15 Nordeste 0 -- -- 89
2019-08-16 05:00:00 13.9 8 Nordeste 19 Este 0 -- -- 80
2019-08-16 04:00:00 14.9 17 Este 19 Este 0 -- -- 73
2019-08-16 03:00:00 16 17 Este 30 Este 0 -- -- 65
2019-08-16 02:00:00 17 23 Este 29 Este 0 -- -- 61
2019-08-16 01:00:00 17.6 20 Este 29 Este 0 -- -- 61
2019-08-16 00:00:00 18.1 21 Este 33 Este 0 -- -- 62
2019-08-15 23:00:00 19.7 22 Este 32 Este 0 -- -- 53
2019-08-15 22:00:00 22 22 Este 33 Este 0 -- -- 41
2019-08-15 21:00:00 25.2 14 Este 21 Sudeste 0 -- -- 36
2019-08-15 20:00:00 28.6 5 Este 21 Noroeste 0 -- -- 32
2019-08-15 19:00:00 27.9 8 Nordeste 23 Noroeste 0 -- -- 33
2019-08-15 18:00:00 28.4 5 Noroeste 21 Noroeste 0 -- -- 33
2019-08-15 17:00:00 28.4 12 Norte 22 Norte 0 -- -- 33
2019-08-15 16:00:00 27.5 6 Noroeste 19 Norte 0 -- -- 34
2019-08-15 15:00:00 26.2 10 Norte 20 Norte 0 -- -- 35
2019-08-15 14:00:00 26.1 7 Norte 17 Nordeste 0 -- -- 38
2019-08-15 13:00:00 24 8 Norte 18 Sudeste 0 -- -- 42
2019-08-15 12:00:00 23.1 5 Nordeste 18 Nordeste 0 -- -- 51
2019-08-15 11:00:00 21 11 Este 18 Este 0 -- -- 62
2019-08-15 10:00:00 19.2 13 Este 21 Este 0 -- -- 71
2019-08-15 09:00:00 16.5 13 Nordeste 17 Este 0 -- -- 84
2019-08-15 08:00:00 14.7 14 Este 23 Este 0 -- -- 94
2019-08-15 07:00:00 14.2 15 Este 24 Este 0 -- -- 94
2019-08-15 06:00:00 14.5 15 Este 26 Este 0 -- -- 92
2019-08-15 05:00:00 15.2 21 Este 32 Este 0 -- -- 89
2019-08-15 04:00:00 15.1 16 Nordeste 28 Nordeste 0 -- -- 83
2019-08-15 03:00:00 15.5 15 Este 24 Este 0 -- -- 76
2019-08-15 02:00:00 16.9 17 Este 21 Nordeste 0 -- -- 70
2019-08-15 01:00:00 18.4 14 Nordeste 19 Nordeste 0 -- -- 65
2019-08-15 00:00:00 20 10 Nordeste 17 Norte 0 -- -- 57
2019-08-14 23:00:00 22.9 13 Noroeste 18 Noroeste 0 -- -- 44
2019-08-14 22:00:00 23.5 8 Noroeste 15 Noroeste 0 -- -- 40
2019-08-14 21:00:00 26.8 9 Noroeste 19 Oeste 0 -- -- 35
2019-08-14 20:00:00 28.5 12 Noroeste 28 Noroeste 0 -- -- 33
2019-08-14 19:00:00 28.9 13 Noroeste 26 Oeste 0 -- -- 30
2019-08-14 18:00:00 29.2 8 Noroeste 25 Noroeste 0 -- -- 29
2019-08-14 17:00:00 28.8 14 Noroeste 25 Noroeste 0 -- -- 29
2019-08-14 16:00:00 27.6 13 Oeste 27 Oeste 0 -- -- 30
2019-08-14 15:00:00 27.4 11 Noroeste 22 Oeste 0 -- -- 31
2019-08-14 14:00:00 25.2 14 Noroeste 26 Oeste 0 -- -- 31
2019-08-14 13:00:00 24.7 11 Oeste 21 Oeste 0 -- -- 32
2019-08-14 12:00:00 22.6 9 Oeste 15 Sudoeste 0 -- -- 34
2019-08-14 11:00:00 20.7 4 Noroeste 9 Nordeste 0 -- -- 39
2019-08-14 10:00:00 17.4 5 Norte 11 Noroeste 0 -- -- 54
2019-08-14 09:00:00 14.9 6 Sudeste 11 Este 0 -- -- 68
2019-08-14 08:00:00 11.4 8 Este 10 Este 0 -- -- 80
2019-08-14 07:00:00 10.2 7 Sudeste 11 Este 0 -- -- 85
2019-08-14 06:00:00 10.6 10 Este 15 Este 0 -- -- 84
2019-08-14 05:00:00 10.6 12 Este 14 Este 0 -- -- 82
2019-08-14 04:00:00 11.3 9 Nordeste 17 Este 0 -- -- 76
2019-08-14 03:00:00 12.7 15 Este 17 Este 0 -- -- 68
2019-08-14 02:00:00 13.6 11 Este 14 Este 0 -- -- 59
2019-08-14 01:00:00 14.2 10 Este 18 Este 0 -- -- 47
2019-08-14 00:00:00 17.7 5 Sudeste 9 Sudeste 0 -- -- 33
2019-08-13 23:00:00 18.3 8 Sudeste 10 Sudeste 0 -- -- 32
2019-08-13 22:00:00 18.7 6 Este 7 Este 0 -- -- 31
2019-08-13 21:00:00 22.8 4 Este 12 Este 0 -- -- 27
2019-08-13 20:00:00 23.7 6 Nordeste 14 Este 0 -- -- 26
2019-08-13 19:00:00 24.3 2 Norte 18 Noroeste 0 -- -- 25
2019-08-13 18:00:00 23.2 10 Noroeste 21 Norte 0 -- -- 26
2019-08-13 17:00:00 22.9 11 Nordeste 23 Norte 0 -- -- 27
2019-08-13 16:00:00 22.3 12 Norte 18 Nordeste 0 -- -- 26
2019-08-13 15:00:00 21.5 8 Norte 19 Norte 0 -- -- 32
2019-08-13 14:00:00 20 9 Norte 21 Norte 0 -- -- 37
2019-08-13 13:00:00 19.2 4 Noroeste 22 Nordeste 0 -- -- 41
2019-08-13 12:00:00 18.1 11 Este 19 Este 0 -- -- 43
2019-08-13 11:00:00 16.1 13 Nordeste 21 Nordeste 0 -- -- 50
2019-08-13 10:00:00 13.5 16 Nordeste 21 Este 0 -- -- 63
2019-08-13 09:00:00 10.9 14 Este 18 Este 0 -- -- 75
2019-08-13 08:00:00 8.2 13 Nordeste 19 Nordeste 0 -- -- 90
2019-08-13 07:00:00 7.9 12 Este 20 Este 0 -- -- 87
2019-08-13 06:00:00 9 17 Este 23 Este 0 -- -- 80
2019-08-13 05:00:00 9.4 17 Este 26 Este 0 -- -- 76
2019-08-13 04:00:00 10.4 21 Este 33 Este 0 -- -- 70
2019-08-13 03:00:00 11 27 Este 36 Este 0 -- -- 68
2019-08-13 02:00:00 11.4 25 Este 40 Este 0 -- -- 67
2019-08-13 01:00:00 11.5 24 Este 36 Este 0 -- -- 65
2019-08-13 00:00:00 12 27 Este 39 Nordeste 0 -- -- 63
2019-08-12 23:00:00 13 29 Nordeste 38 Nordeste 0 -- -- 58
2019-08-12 22:00:00 14.8 19 Nordeste 28 Este 0 -- -- 50
2019-08-12 21:00:00 16.7 19 Este 34 Este 0 -- -- 42
2019-08-12 20:00:00 18.5 16 Nordeste 27 Nordeste 0 -- -- 35
2019-08-12 19:00:00 20.5 19 Nordeste 30 Nordeste 0 -- -- 32
2019-08-12 18:00:00 21.1 13 Norte 32 Nordeste 0 -- -- 30
2019-08-12 17:00:00 20.5 12 Nordeste 30 Nordeste 0 -- -- 31
2019-08-12 16:00:00 20.2 13 Norte 25 Nordeste 0 -- -- 33
2019-08-12 15:00:00 19.5 9 Nordeste 23 Nordeste 0 -- -- 37
2019-08-12 14:00:00 18.2 10 Nordeste 21 Nordeste 0 -- -- 41
2019-08-12 13:00:00 17.7 4 Sudeste 17 Este 0 -- -- 42
2019-08-12 12:00:00 15.1 4 Noroeste 16 Noroeste 0 -- -- 50
2019-08-12 11:00:00 13.4 8 Norte 17 Noroeste 0 -- -- 58
2019-08-12 10:00:00 12.2 4 Noroeste 12 Noroeste 0 -- -- 75
2019-08-12 09:00:00 10.5 0 Calma 4 Norte 0 -- -- 89
2019-08-12 08:00:00 7.8 2 Noroeste 7 Noroeste 0 -- -- 96
2019-08-12 07:00:00 6.6 4 Norte 9 Norte 0 -- -- 96
2019-08-12 06:00:00 7.5 4 Norte 9 Norte 0 -- -- 95
2019-08-12 05:00:00 8 7 Norte 12 Nordeste 0 -- -- 95
2019-08-12 04:00:00 8.7 9 Nordeste 13 Nordeste 0 -- -- 91
2019-08-12 03:00:00 9.3 7 Nordeste 15 Nordeste 0 -- -- 87
2019-08-12 02:00:00 10.3 13 Nordeste 22 Este 0 -- -- 82
2019-08-12 01:00:00 10.8 16 Este 27 Nordeste 0 -- -- 79
2019-08-12 00:00:00 11.2 17 Nordeste 32 Nordeste 0 -- -- 76
2019-08-11 23:00:00 12 19 Nordeste 32 Nordeste 0 -- -- 73
2019-08-11 22:00:00 13.7 26 Nordeste 57 Nordeste 0 -- -- 71
2019-08-11 21:00:00 19.4 17 Oeste 28 Noroeste 0 -- -- 30
2019-08-11 20:00:00 22.2 16 Oeste 27 Oeste 0 -- -- 25
2019-08-11 19:00:00 23 13 Oeste 30 Oeste 0 -- -- 28
2019-08-11 18:00:00 22.6 18 Oeste 31 Oeste 0 -- -- 30
2019-08-11 17:00:00 21.2 15 Oeste 33 Oeste 0 -- -- 36
2019-08-11 16:00:00 21.2 17 Oeste 30 Oeste 0 -- -- 38
2019-08-11 15:00:00 20.4 15 Oeste 27 Noroeste 0 -- -- 47
2019-08-11 14:00:00 19.4 14 Oeste 32 Noroeste 0 -- -- 53
2019-08-11 13:00:00 17.5 15 Noroeste 45 Noroeste 0 -- -- 66
2019-08-11 12:00:00 16.3 13 Noroeste 26 Oeste 0 -- -- 75
2019-08-11 11:00:00 16.1 9 Oeste 17 Oeste 0 -- -- 79
2019-08-11 10:00:00 14.5 6 Sur 12 Este 0 -- -- 88
2019-08-11 09:00:00 12.4 9 Este 19 Este 0 -- -- 97
2019-08-11 08:00:00 10.7 10 Este 27 Nordeste 0 -- -- 97
2019-08-11 07:00:00 10.6 14 Nordeste 18 Nordeste 0 -- -- 97
2019-08-11 06:00:00 11.1 12 Nordeste 17 Nordeste 0.7 -- -- 97
2019-08-11 05:00:00 11.4 11 Nordeste 15 Nordeste 0.8 -- -- 96
2019-08-11 04:00:00 12 10 Nordeste 19 Nordeste 2 -- -- 95
2019-08-11 03:00:00 13.1 19 Nordeste 30 Este 0 -- -- 86
2019-08-11 02:00:00 13.9 21 Nordeste 27 Nordeste 0 -- -- 79
2019-08-11 01:00:00 13.8 23 Este 31 Este 0 -- -- 79
2019-08-11 00:00:00 14.2 22 Este 32 Este 0 -- -- 77
2019-08-10 23:00:00 16.4 18 Nordeste 31 Nordeste 0 -- -- 66
2019-08-10 22:00:00 21.7 10 Noroeste 15 Noroeste 0 -- -- 28
2019-08-10 21:00:00 22.6 14 Noroeste 29 Oeste 0 -- -- 26
2019-08-10 20:00:00 24.4 16 Oeste 25 Oeste 0 -- -- 24
2019-08-10 19:00:00 26.2 12 Oeste 27 Oeste 0 -- -- 24
2019-08-10 18:00:00 25.6 16 Sudoeste 38 Oeste 0 -- -- 24
2019-08-10 17:00:00 26 8 Sudoeste 23 Sudoeste 0 -- -- 27
2019-08-10 16:00:00 24.8 8 Oeste 24 Oeste 0 -- -- 30
2019-08-10 15:00:00 24.3 0 Calma 23 Oeste 0 -- -- 34
2019-08-10 14:00:00 22.5 9 Oeste 25 Oeste 0 -- -- 38
2019-08-10 13:00:00 21.9 6 Sur 17 Sudoeste 0 -- -- 42
2019-08-10 12:00:00 19.8 5 Sudoeste 14 Sudoeste 0 -- -- 48
2019-08-10 11:00:00 17.7 3 Sudoeste 9 Noroeste 0 -- -- 59
2019-08-10 10:00:00 15.9 6 Noroeste 18 Oeste 0 -- -- 66
2019-08-10 09:00:00 14.3 8 Sudoeste 15 Oeste 0 -- -- 76
2019-08-10 08:00:00 12.2 5 Sudoeste 8 Sur 0 -- -- 85
2019-08-10 07:00:00 11.5 6 Sudoeste 10 Sudoeste 0 -- -- 85
2019-08-10 06:00:00 11.4 9 Sudoeste 17 Oeste 0 -- -- 81
2019-08-10 05:00:00 13.6 13 Oeste 20 Oeste 0 -- -- 71
2019-08-10 04:00:00 13.9 16 Oeste 22 Oeste 0 -- -- 70
2019-08-10 03:00:00 12.7 14 Oeste 18 Oeste 0 -- -- 78
2019-08-10 02:00:00 12.1 6 Sudoeste 20 Oeste 0 -- -- 84
2019-08-10 01:00:00 12.2 9 Oeste 16 Sudoeste 0 -- -- 95
2019-08-10 00:00:00 13 9 Sudoeste 18 Sudoeste 0 -- -- 95
2019-08-09 23:00:00 14.1 14 Sur 22 Sur 0 -- -- 91
2019-08-09 22:00:00 15.3 13 Sur 30 Sudoeste 0 -- -- 85
2019-08-09 21:00:00 17.8 22 Sur 40 Oeste 0 -- -- 69
2019-08-09 20:00:00 23.3 27 Oeste 43 Oeste 0 -- -- 33
2019-08-09 19:00:00 24.3 31 Oeste 49 Oeste 0 -- -- 31
2019-08-09 18:00:00 23.3 34 Oeste 52 Oeste 0 -- -- 31
2019-08-09 17:00:00 26.8 35 Oeste 55 Oeste 0 -- -- 30
2019-08-09 16:00:00 25.9 31 Oeste 48 Oeste 0 -- -- 37
2019-08-09 15:00:00 23.4 30 Oeste 53 Oeste 0 -- -- 45
2019-08-09 14:00:00 22.6 35 Sudoeste 54 Oeste 0 -- -- 51
2019-08-09 13:00:00 21.4 35 Oeste 63 Oeste 0 -- -- 53
2019-08-09 12:00:00 19.8 35 Oeste 55 Oeste 0 -- -- 72
2019-08-09 11:00:00 17.3 26 Oeste 45 Oeste 0 -- -- 95
2019-08-09 10:00:00 16.5 33 Oeste 49 Oeste 0 -- -- 95
2019-08-09 09:00:00 19.6 24 Sudoeste 34 Sudoeste 0 -- -- 78
2019-08-09 08:00:00 17.9 17 Sur 23 Sudoeste 0 -- -- 83
2019-08-09 07:00:00 17.1 13 Sudoeste 25 Sudoeste 0 -- -- 82
2019-08-09 06:00:00 17.5 18 Sudoeste 26 Sudoeste 0 -- -- 80
2019-08-09 05:00:00 17.3 13 Sudoeste 24 Sudoeste 0 -- -- 79
2019-08-09 04:00:00 18.2 16 Sudoeste 24 Sudoeste 0 -- -- 74
2019-08-09 03:00:00 19.4 20 Sudoeste 26 Sudoeste 0 -- -- 67
2019-08-09 02:00:00 20.3 21 Sudoeste 31 Oeste 0 -- -- 62
2019-08-09 01:00:00 20.8 16 Oeste 24 Oeste 0 -- -- 60
2019-08-09 00:00:00 21 14 Oeste 29 Oeste 0 -- -- 57
2019-08-08 23:00:00 23.1 21 Oeste 32 Oeste 0 -- -- 48
2019-08-08 22:00:00 24.2 25 Oeste 39 Oeste 0 -- -- 44
2019-08-08 21:00:00 25.9 27 Oeste 47 Oeste 0 -- -- 41
2019-08-08 20:00:00 28.2 34 Oeste 51 Oeste 0 -- -- 37
2019-08-08 19:00:00 28.7 35 Oeste 51 Oeste 0 -- -- 35
2019-08-08 18:00:00 29.5 32 Oeste 45 Oeste 0 -- -- 37
2019-08-08 17:00:00 29.1 19 Oeste 48 Oeste 0 -- -- 41
2019-08-08 16:00:00 27.9 23 Sudoeste 36 Oeste 0 -- -- 42
2019-08-08 15:00:00 27.8 19 Sudoeste 31 Oeste 0 -- -- 44
2019-08-08 14:00:00 26.5 14 Oeste 34 Sudoeste 0 -- -- 48
2019-08-08 13:00:00 23.9 13 Noroeste 26 Oeste 0 -- -- 59
2019-08-08 12:00:00 21.8 16 Oeste 26 Oeste 0 -- -- 69
2019-08-08 11:00:00 17.9 20 Sudoeste 34 Sudoeste 0 -- -- 90
2019-08-08 10:00:00 18.4 5 Sudoeste 28 Sudoeste 0 -- -- 85
2019-08-08 09:00:00 18.7 19 Sudoeste 25 Sudoeste 0 -- -- 72
2019-08-08 08:00:00 17.9 15 Sudoeste 20 Sudoeste 0 -- -- 77
2019-08-08 07:00:00 17.5 7 Sudoeste 13 Sudoeste 0 -- -- 81
2019-08-08 06:00:00 17.3 7 Sudoeste 12 Sudoeste 0 -- -- 84
2019-08-08 05:00:00 17.1 9 Sudoeste 11 Sudoeste 0 -- -- 86
2019-08-08 04:00:00 17 4 Sudoeste 14 Sudoeste 0 -- -- 86
2019-08-08 03:00:00 17.1 11 Sudoeste 15 Sudoeste 0 -- -- 86
2019-08-08 02:00:00 16.7 8 Sudoeste 15 Sur 0 -- -- 90
2019-08-08 01:00:00 17 8 Oeste 9 Oeste 0 -- -- 87
2019-08-08 00:00:00 17.1 8 Oeste 13 Noroeste 0 -- -- 88
2019-08-07 23:00:00 16.3 10 Oeste 18 Noroeste 0 -- -- 92
2019-08-07 22:00:00 17 14 Oeste 31 Oeste 0 -- -- 89
2019-08-07 21:00:00 17.7 19 Noroeste 37 Oeste 0 -- -- 86
2019-08-07 20:00:00 21.4 25 Oeste 33 Oeste 0 -- -- 51
2019-08-07 19:00:00 22.3 12 Noroeste 27 Noroeste 0 -- -- 50
2019-08-07 18:00:00 22.4 21 Noroeste 29 Noroeste 0 -- -- 48
2019-08-07 17:00:00 24.1 9 Oeste 17 Oeste 0 -- -- 42
2019-08-07 16:00:00 21.3 9 Oeste 36 Oeste 0 -- -- 56
2019-08-07 15:00:00 24.3 21 Oeste 34 Oeste 0 -- -- 34
2019-08-07 14:00:00 25.4 15 Oeste 36 Oeste 0 -- -- 34
2019-08-07 13:00:00 25.8 8 Sudoeste 21 Sudoeste 0 -- -- 36
2019-08-07 12:00:00 23.5 8 Sudoeste 14 Sudoeste 0 -- -- 39
2019-08-07 11:00:00 21.7 3 Oeste 10 Noroeste 0 -- -- 58
2019-08-07 10:00:00 19.7 4 Noroeste 11 Oeste 0 -- -- 65
2019-08-07 09:00:00 17.8 7 Noroeste 10 Noroeste 0 -- -- 78
2019-08-07 08:00:00 16.5 0 Calma 4 Oeste 0 -- -- 90
2019-08-07 07:00:00 14.8 0 Calma 7 Nordeste 0 -- -- 95
2019-08-07 06:00:00 14.7 5 Nordeste 10 Norte 0 -- -- 95
2019-08-07 05:00:00 15.9 0 Calma 21 Norte 0 -- -- 90
2019-08-07 04:00:00 16.4 4 Sur 12 Sur 0 -- -- 85
2019-08-07 03:00:00 17.5 10 Sudeste 16 Sudeste 0 -- -- 81
2019-08-07 02:00:00 17.8 8 Este 24 Este 0 -- -- 80
2019-08-07 01:00:00 17.7 19 Este 33 Este 0 -- -- 80
2019-08-07 00:00:00 18.3 21 Nordeste 32 Nordeste 0 -- -- 74
2019-08-06 23:00:00 19.6 26 Nordeste 36 Nordeste 0 -- -- 68
2019-08-06 22:00:00 23.5 19 Noroeste 32 Noroeste 0 -- -- 41
2019-08-06 21:00:00 26 24 Noroeste 32 Noroeste 0 -- -- 34
2019-08-06 20:00:00 27.4 8 Noroeste 19 Oeste 0 -- -- 31
2019-08-06 19:00:00 28.2 14 Oeste 27 Oeste 0 -- -- 30
2019-08-06 18:00:00 28.7 17 Oeste 38 Noroeste 0 -- -- 30
2019-08-06 17:00:00 29.2 16 Oeste 33 Oeste 0 -- -- 32
2019-08-06 16:00:00 29 13 Oeste 30 Oeste 0 -- -- 35
2019-08-06 15:00:00 28.5 12 Noroeste 28 Oeste 0 -- -- 37
2019-08-06 14:00:00 28.3 13 Noroeste 41 Oeste 0 -- -- 39
2019-08-06 13:00:00 26.3 9 Oeste 19 Oeste 0 -- -- 44
2019-08-06 12:00:00 24.3 7 Sudoeste 14 Noroeste 0 -- -- 52
2019-08-06 11:00:00 22.3 8 Noroeste 12 Noroeste 0 -- -- 59
2019-08-06 10:00:00 20 3 Sudeste 10 Sudeste 0 -- -- 67
2019-08-06 09:00:00 17.9 8 Sudeste 12 Este 0 -- -- 73
2019-08-06 08:00:00 15.1 7 Sudeste 12 Este 0 -- -- 82
2019-08-06 07:00:00 13.4 9 Este 15 Este 0 -- -- 84
2019-08-06 06:00:00 13.8 10 Este 16 Este 0 -- -- 81
2019-08-06 05:00:00 13.9 10 Este 15 Nordeste 0 -- -- 81
2019-08-06 04:00:00 14.7 12 Nordeste 20 Nordeste 0 -- -- 80
2019-08-06 03:00:00 15.6 7 Nordeste 25 Este 0 -- -- 85
2019-08-06 02:00:00 17.5 17 Este 23 Este 0 -- -- 80
2019-08-06 01:00:00 18.3 15 Nordeste 18 Este 0 -- -- 76
2019-08-06 00:00:00 20 7 Nordeste 23 Este 0 -- -- 68
2019-08-05 23:00:00 22.4 17 Este 21 Nordeste 0 -- -- 48
2019-08-05 22:00:00 24.3 9 Norte 16 Noroeste 0 -- -- 32
2019-08-05 21:00:00 28.2 14 Noroeste 23 Noroeste 0 -- -- 27
2019-08-05 20:00:00 29.9 18 Noroeste 26 Oeste 0 -- -- 27
2019-08-05 19:00:00 31 14 Noroeste 30 Noroeste 0 -- -- 27
2019-08-05 18:00:00 30.6 8 Nordeste 32 Noroeste 0 -- -- 29
2019-08-05 17:00:00 31.6 8 Norte 23 Norte 0 -- -- 30
2019-08-05 16:00:00 29.4 12 Norte 25 Noroeste 0 -- -- 32
2019-08-05 15:00:00 29.6 10 Norte 18 Noroeste 0 -- -- 34
2019-08-05 14:00:00 28.2 8 Noroeste 19 Noroeste 0 -- -- 38
2019-08-05 13:00:00 27.3 7 Noroeste 16 Noroeste 0 -- -- 41
2019-08-05 12:00:00 25.3 3 Norte 11 Noroeste 0 -- -- 48
2019-08-05 11:00:00 22.8 3 Sudeste 11 Este 0 -- -- 54
2019-08-05 10:00:00 19.6 8 Este 14 Este 0 -- -- 68
2019-08-05 09:00:00 16.9 10 Este 14 Este 0 -- -- 81
2019-08-05 08:00:00 14.5 12 Este 15 Este 0 -- -- 96
2019-08-05 07:00:00 13.1 8 Nordeste 10 Nordeste 0 -- -- 96
2019-08-05 06:00:00 13.8 10 Nordeste 13 Este 0 -- -- 96
2019-08-05 05:00:00 14.5 10 Este 16 Este 0 -- -- 95
2019-08-05 04:00:00 15 14 Este 19 Este 0 -- -- 94
2019-08-05 03:00:00 15.4 15 Este 24 Nordeste 0 -- -- 92
2019-08-05 02:00:00 15.8 17 Nordeste 25 Nordeste 0 -- -- 91
2019-08-05 01:00:00 16.1 17 Este 23 Nordeste 0 -- -- 88
2019-08-05 00:00:00 17.5 18 Nordeste 35 Nordeste 0 -- -- 81
2019-08-04 23:00:00 23.1 14 Noroeste 19 Nordeste 0 -- -- 32
2019-08-04 22:00:00 25.1 15 Oeste 28 Oeste 0 -- -- 30
2019-08-04 21:00:00 28.9 17 Oeste 30 Oeste 0 -- -- 27
2019-08-04 20:00:00 30.5 15 Oeste 30 Oeste 0 -- -- 27
2019-08-04 19:00:00 31.5 19 Oeste 31 Oeste 0 -- -- 26
2019-08-04 18:00:00 31.8 15 Oeste 29 Oeste 0 -- -- 27
2019-08-04 17:00:00 31.6 13 Oeste 30 Oeste 0 -- -- 30
2019-08-04 16:00:00 30.5 13 Oeste 28 Oeste 0 -- -- 32
2019-08-04 15:00:00 29.6 8 Noroeste 28 Noroeste 0 -- -- 37
2019-08-04 14:00:00 27.1 10 Noroeste 21 Oeste 0 -- -- 40
2019-08-04 13:00:00 26.8 4 Oeste 15 Sudoeste 0 -- -- 46
2019-08-04 12:00:00 24.1 4 Noroeste 14 Noroeste 0 -- -- 55
2019-08-04 11:00:00 22.2 4 Noroeste 9 Este 0 -- -- 62
2019-08-04 10:00:00 20.2 4 Este 9 Este 0 -- -- 71
2019-08-04 09:00:00 17.6 7 Este 13 Este 0 -- -- 80
2019-08-04 08:00:00 15.5 6 Este 11 Este 0 -- -- 90
2019-08-04 07:00:00 13.9 6 Este 15 Este 0 -- -- 87
2019-08-04 06:00:00 15.3 13 Este 21 Este 0 -- -- 81
2019-08-04 05:00:00 16.1 16 Este 23 Este 0 -- -- 72
2019-08-04 04:00:00 16.4 14 Nordeste 21 Nordeste 0 -- -- 71
2019-08-04 03:00:00 17.2 17 Nordeste 30 Nordeste 0 -- -- 69
2019-08-04 02:00:00 17.4 20 Nordeste 28 Nordeste 0 -- -- 71
2019-08-04 01:00:00 18.3 13 Nordeste 18 Nordeste 0 -- -- 74
2019-08-04 00:00:00 19.7 14 Nordeste 26 Este 0 -- -- 72
2019-08-03 23:00:00 22.8 19 Nordeste 33 Nordeste 0 -- -- 58
2019-08-03 22:00:00 27.5 5 Norte 8 Norte 0 -- -- 27
2019-08-03 21:00:00 31.3 4 Oeste 14 Noroeste 0 -- -- 25
2019-08-03 20:00:00 33.1 5 Sudoeste 15 Sudoeste 0 -- -- 24
2019-08-03 19:00:00 32.7 4 Noroeste 18 Norte 0 -- -- 25
2019-08-03 18:00:00 31.1 11 Norte 21 Noroeste 0 -- -- 27
2019-08-03 17:00:00 32.6 3 Noroeste 22 Norte 0 -- -- 26
2019-08-03 16:00:00 33.4 12 Norte 30 Noroeste 0 -- -- 27
2019-08-03 15:00:00 31.5 4 Norte 24 Norte 0 -- -- 28
2019-08-03 14:00:00 30.4 9 Noroeste 15 Sudoeste 0 -- -- 31
2019-08-03 13:00:00 30.2 2 Norte 11 Este 0 -- -- 33
2019-08-03 12:00:00 27.2 4 Sudeste 14 Sudeste 0 -- -- 38
2019-08-03 11:00:00 23.7 10 Este 17 Este 0 -- -- 47
2019-08-03 10:00:00 21.4 10 Este 15 Este 0 -- -- 53
2019-08-03 09:00:00 18 10 Este 19 Este 0 -- -- 64
2019-08-03 08:00:00 15.7 17 Este 22 Este 0 -- -- 71
2019-08-03 07:00:00 14.7 19 Este 23 Este 0 -- -- 73
2019-08-03 06:00:00 15 21 Este 24 Este 0 -- -- 71
2019-08-03 05:00:00 15.7 16 Este 22 Este 0 -- -- 69
2019-08-03 04:00:00 16.7 19 Este 24 Este 0 -- -- 70
2019-08-03 03:00:00 17.3 19 Este 22 Este 0 -- -- 68
2019-08-03 02:00:00 18.2 17 Este 21 Este 0 -- -- 63
2019-08-03 01:00:00 20 17 Este 24 Este 0 -- -- 58
2019-08-03 00:00:00 21.2 16 Este 24 Este 0 -- -- 56
2019-08-02 23:00:00 22.6 17 Este 28 Nordeste 0 -- -- 44
2019-08-02 22:00:00 23.9 11 Nordeste 13 Nordeste 0 -- -- 29
2019-08-02 21:00:00 27.8 9 Norte 13 Norte 0 -- -- 25
2019-08-02 20:00:00 29.7 11 Norte 20 Nordeste 0 -- -- 24
2019-08-02 19:00:00 30.4 7 Nordeste 24 Noroeste 0 -- -- 24
2019-08-02 18:00:00 31 10 Oeste 20 Noroeste 0 -- -- 25
2019-08-02 17:00:00 30.1 8 Norte 18 Norte 0 -- -- 26
2019-08-02 16:00:00 29.6 10 Norte 27 Oeste 0 -- -- 27
2019-08-02 15:00:00 29.3 5 Norte 21 Norte 0 -- -- 30
2019-08-02 14:00:00 28.4 5 Este 16 Sudeste 0 -- -- 34
2019-08-02 13:00:00 25.8 9 Este 18 Este 0 -- -- 44
2019-08-02 12:00:00 23.4 9 Este 17 Este 0 -- -- 51
2019-08-02 11:00:00 20.6 10 Nordeste 19 Este 0 -- -- 60
2019-08-02 10:00:00 17.7 13 Este 22 Este 0 -- -- 71
2019-08-02 09:00:00 14.8 18 Este 23 Nordeste 0 -- -- 88
2019-08-02 08:00:00 12.6 16 Nordeste 24 Este 0 -- -- 97
2019-08-02 07:00:00 12 20 Este 27 Este 0 -- -- 97
2019-08-02 06:00:00 12.3 21 Este 28 Este 0 -- -- 97
2019-08-02 05:00:00 12.6 23 Este 31 Este 0 -- -- 96
2019-08-02 04:00:00 12.9 24 Este 33 Este 0 -- -- 94
2019-08-02 03:00:00 13.4 28 Este 37 Este 0 -- -- 93
2019-08-02 02:00:00 13.9 26 Este 35 Este 0 -- -- 91
2019-08-02 01:00:00 14.6 26 Este 33 Este 0 -- -- 89
2019-08-02 00:00:00 15.4 26 Este 35 Este 0 -- -- 85
2019-08-01 23:00:00 16.7 27 Este 38 Este 0 -- -- 81
2019-08-01 22:00:00 19.1 23 Nordeste 33 Nordeste 0 -- -- 69
2019-08-01 21:00:00 22.9 24 Nordeste 33 Nordeste 0 -- -- 53
2019-08-01 20:00:00 27.9 10 Noroeste 21 Noroeste 0 -- -- 27
2019-08-01 19:00:00 27.8 7 Noroeste 26 Noroeste 0 -- -- 27
2019-08-01 18:00:00 28 5 Nordeste 25 Oeste 0 -- -- 31
2019-08-01 17:00:00 26.7 13 Noroeste 29 Noroeste 0 -- -- 34
2019-08-01 16:00:00 27.8 10 Noroeste 26 Oeste 0 -- -- 34
2019-08-01 15:00:00 26.9 7 Noroeste 21 Norte 0 -- -- 40
2019-08-01 14:00:00 25.7 6 Noroeste 23 Noroeste 0 -- -- 48
2019-08-01 13:00:00 23.5 5 Norte 18 Norte 0 -- -- 53
2019-08-01 12:00:00 22.7 7 Nordeste 17 Nordeste 0 -- -- 58
2019-08-01 11:00:00 19.9 12 Este 21 Nordeste 0 -- -- 65
2019-08-01 10:00:00 17.4 14 Nordeste 22 Este 0 -- -- 75
2019-08-01 09:00:00 15 17 Nordeste 25 Este 0 -- -- 87
2019-08-01 08:00:00 12.9 18 Este 24 Nordeste 0 -- -- 96
2019-08-01 07:00:00 12.2 20 Este 29 Este 0 -- -- 96
2019-08-01 06:00:00 12.2 19 Nordeste 28 Este 0 -- -- 95
2019-08-01 05:00:00 12.7 22 Este 35 Este 0 -- -- 92
2019-08-01 04:00:00 13.4 23 Este 32 Este 0 -- -- 88
2019-08-01 03:00:00 14.2 30 Este 36 Este 0 -- -- 82
2019-08-01 02:00:00 14.7 19 Este 27 Este 0 -- -- 81
2019-08-01 01:00:00 15.8 22 Este 31 Este 0 -- -- 76
2019-08-01 00:00:00 16.2 21 Nordeste 30 Nordeste 0 -- -- 74
2019-07-31 23:00:00 18.5 20 Nordeste 32 Nordeste 0 -- -- 55
2019-07-31 22:00:00 20.1 23 Nordeste 31 Nordeste 0 -- -- 48
2019-07-31 21:00:00 21.7 28 Nordeste 36 Nordeste 0 -- -- 42
2019-07-31 20:00:00 24.4 23 Nordeste 32 Nordeste 0 -- -- 37
2019-07-31 19:00:00 24.4 23 Nordeste 31 Nordeste 0 -- -- 35
2019-07-31 18:00:00 25.4 23 Nordeste 31 Nordeste 0 -- -- 34
2019-07-31 17:00:00 26.7 10 Este 28 Sudeste 0 -- -- 33
2019-07-31 16:00:00 26.3 14 Este 28 Nordeste 0 -- -- 35
2019-07-31 15:00:00 23.8 14 Nordeste 26 Nordeste 0 -- -- 38
2019-07-31 14:00:00 23.5 15 Nordeste 30 Nordeste 0 -- -- 40
2019-07-31 13:00:00 21.4 14 Este 24 Este 0 -- -- 42
2019-07-31 12:00:00 19 16 Nordeste 24 Nordeste 0 -- -- 49
2019-07-31 11:00:00 16.5 17 Nordeste 27 Nordeste 0 -- -- 58
2019-07-31 10:00:00 13.5 21 Este 31 Este 0 -- -- 71
2019-07-31 09:00:00 10.7 18 Nordeste 24 Este 0 -- -- 86
2019-07-31 08:00:00 8.8 19 Este 30 Este 0 -- -- 94
2019-07-31 07:00:00 8.6 19 Este 25 Este 0 -- -- 94
2019-07-31 06:00:00 9 20 Este 27 Este 0 -- -- 94
2019-07-31 05:00:00 9.6 22 Este 26 Este 0 -- -- 93
2019-07-31 04:00:00 9.9 21 Este 35 Este 0 -- -- 91
2019-07-31 03:00:00 10.3 21 Este 32 Este 0 -- -- 90
2019-07-31 02:00:00 10.9 26 Este 37 Este 0 -- -- 87
2019-07-31 01:00:00 11.2 23 Este 37 Nordeste 0 -- -- 82
2019-07-31 00:00:00 12.1 24 Nordeste 37 Este 0 -- -- 76
2019-07-30 23:00:00 13.5 25 Este 33 Este 0 -- -- 70
2019-07-30 22:00:00 15.8 16 Nordeste 30 Este 0 -- -- 58
2019-07-30 21:00:00 19.7 19 Nordeste 26 Nordeste 0 -- -- 41
2019-07-30 20:00:00 22.2 13 Nordeste 23 Nordeste 0 -- -- 33
2019-07-30 19:00:00 22.5 12 Nordeste 22 Nordeste 0 -- -- 33
2019-07-30 18:00:00 22.9 11 Norte 24 Nordeste 0 -- -- 33
2019-07-30 17:00:00 23.1 13 Nordeste 28 Nordeste 0 -- -- 34
2019-07-30 16:00:00 22.5 11 Norte 26 Nordeste 0 -- -- 37
2019-07-30 15:00:00 21.6 9 Norte 23 Este 0 -- -- 41
2019-07-30 14:00:00 21 7 Este 18 Este 0 -- -- 46
2019-07-30 13:00:00 20 7 Nordeste 15 Nordeste 0 -- -- 51
2019-07-30 12:00:00 17.4 8 Nordeste 19 Este 0 -- -- 59
2019-07-30 11:00:00 15.7 8 Nordeste 15 Nordeste 0 -- -- 69
2019-07-30 10:00:00 13.8 6 Nordeste 17 Noroeste 0 -- -- 77
2019-07-30 09:00:00 10.9 13 Noroeste 17 Noroeste 0 -- -- 79
2019-07-30 08:00:00 10 7 Oeste 11 Oeste 0 -- -- 85
2019-07-30 07:00:00 8.5 10 Noroeste 21 Noroeste 0 -- -- 86
2019-07-30 06:00:00 9.8 15 Noroeste 23 Noroeste 0 -- -- 81
2019-07-30 05:00:00 10.6 13 Noroeste 17 Noroeste 0 -- -- 84
2019-07-30 04:00:00 9.8 10 Noroeste 18 Noroeste 0 -- -- 81
2019-07-30 03:00:00 11 13 Noroeste 21 Noroeste 0 -- -- 71
2019-07-30 02:00:00 12 14 Noroeste 21 Noroeste 0 -- -- 65
2019-07-30 01:00:00 13.1 15 Noroeste 24 Noroeste 0 -- -- 59
2019-07-30 00:00:00 13.8 13 Noroeste 23 Noroeste 0 -- -- 50
2019-07-29 23:00:00 15.5 12 Oeste 33 Noroeste 0 -- -- 44
2019-07-29 22:00:00 18 19 Noroeste 30 Noroeste 0 -- -- 40
2019-07-29 21:00:00 21.1 23 Noroeste 33 Noroeste 0 -- -- 35
2019-07-29 20:00:00 23.3 17 Noroeste 39 Oeste 0 -- -- 34
2019-07-29 19:00:00 24.7 27 Oeste 41 Oeste 0 -- -- 29
2019-07-29 18:00:00 25.6 28 Oeste 42 Sudoeste 0 -- -- 24
2019-07-29 17:00:00 25.9 28 Oeste 41 Oeste 0 -- -- 28
2019-07-29 16:00:00 24.9 28 Oeste 44 Oeste 0 -- -- 30
2019-07-29 15:00:00 24.2 27 Oeste 43 Oeste 0 -- -- 34
2019-07-29 14:00:00 23.7 29 Oeste 44 Oeste 0 -- -- 42
2019-07-29 13:00:00 22.2 22 Oeste 37 Noroeste 0 -- -- 48
2019-07-29 12:00:00 21.2 19 Oeste 32 Oeste 0 -- -- 51
2019-07-29 11:00:00 19.3 19 Oeste 30 Oeste 0 -- -- 51
2019-07-29 10:00:00 17.9 19 Oeste 26 Oeste 0 -- -- 50
2019-07-29 09:00:00 15.5 17 Sudoeste 23 Sudoeste 0 -- -- 50
2019-07-29 08:00:00 12.3 14 Sudoeste 19 Sudoeste 0 -- -- 61
2019-07-29 07:00:00 10.9 12 Sudoeste 18 Oeste 0 -- -- 61
2019-07-29 06:00:00 12.1 13 Oeste 20 Oeste 0 -- -- 65
2019-07-29 05:00:00 13.1 13 Sudoeste 20 Oeste 0 -- -- 57
2019-07-29 04:00:00 13.1 15 Sudoeste 17 Sudoeste 0 -- -- 50
2019-07-29 03:00:00 13.1 14 Sudoeste 16 Sudoeste 0 -- -- 48
2019-07-29 02:00:00 13.8 13 Sudoeste 14 Sudoeste 0 -- -- 47
2019-07-29 01:00:00 16.7 10 Sur 14 Sur 0 -- -- 37
2019-07-29 00:00:00 19.5 6 Sudeste 12 Sudeste 0 -- -- 33
2019-07-28 23:00:00 19.6 8 Sudeste 10 Sudeste 0 -- -- 33
2019-07-28 22:00:00 20.5 5 Noroeste 12 Oeste 0 -- -- 31
2019-07-28 21:00:00 24.2 9 Noroeste 19 Noroeste 0 -- -- 27
2019-07-28 20:00:00 24.8 11 Noroeste 21 Oeste 0 -- -- 25
2019-07-28 19:00:00 25.6 4 Oeste 22 Noroeste 0 -- -- 26
2019-07-28 18:00:00 24.2 4 Oeste 19 Oeste 0 -- -- 27
2019-07-28 17:00:00 24.1 8 Noroeste 23 Oeste 0 -- -- 31
2019-07-28 16:00:00 23.1 13 Noroeste 22 Noroeste 0 -- -- 34
2019-07-28 15:00:00 21.7 10 Noroeste 24 Noroeste 0 -- -- 38
2019-07-28 14:00:00 21 3 Oeste 15 Noroeste 0 -- -- 42
2019-07-28 13:00:00 19.6 5 Norte 14 Nordeste 0 -- -- 48
2019-07-28 12:00:00 17.8 8 Este 21 Este 0 -- -- 53
2019-07-28 11:00:00 16.3 11 Nordeste 22 Este 0 -- -- 62
2019-07-28 10:00:00 13.8 15 Este 22 Este 0 -- -- 75
2019-07-28 09:00:00 11.8 10 Este 14 Este 0 -- -- 86
2019-07-28 08:00:00 10.2 7 Este 13 Este 0 -- -- 96
2019-07-28 07:00:00 8 7 Este 13 Este 0 -- -- 98
2019-07-28 06:00:00 8.7 11 Este 13 Este 0 -- -- 98
2019-07-28 05:00:00 8.6 7 Este 13 Este 0 -- -- 96
2019-07-28 04:00:00 9.3 10 Este 15 Este 0 -- -- 95
2019-07-28 03:00:00 10.1 14 Este 17 Este 0 -- -- 92
2019-07-28 02:00:00 10.7 11 Este 26 Este 0 -- -- 90
2019-07-28 01:00:00 11.7 18 Este 28 Este 0 -- -- 84
2019-07-28 00:00:00 12 17 Este 25 Este 0 -- -- 81
2019-07-27 23:00:00 12.8 17 Este 24 Este 0 -- -- 80
2019-07-26 12:00:00 20.4 9 Noroeste 16 Oeste 0 -- -- 65
2019-07-26 11:00:00 18.9 10 Noroeste 21 Noroeste 0 -- -- 68
2019-07-26 10:00:00 17.7 16 Noroeste 22 Noroeste 0 -- -- 71
2019-07-26 09:00:00 16.8 14 Oeste 20 Noroeste 0 -- -- 77
2019-07-26 08:00:00 16.5 15 Noroeste 19 Noroeste 0 -- -- 88
2019-07-26 07:00:00 16 12 Oeste 15 Noroeste 0 -- -- 95
2019-07-26 06:00:00 16.6 4 Norte 11 Este 0 -- -- 92
2019-07-26 05:00:00 17 10 Este 13 Este 0 -- -- 91
2019-07-26 04:00:00 17 4 Este 17 Norte 0 -- -- 91
2019-07-26 03:00:00 17.4 8 Norte 13 Nordeste 0 -- -- 88
2019-07-26 02:00:00 18.1 10 Nordeste 28 Este 0 -- -- 82
2019-07-26 01:00:00 18.9 23 Este 30 Este 0 -- -- 75
2019-07-26 00:00:00 22 10 Norte 20 Noroeste 0 -- -- 54
2019-07-25 23:00:00 22 17 Noroeste 32 Norte 0 -- -- 52
2019-07-25 22:00:00 24.5 23 Noroeste 35 Noroeste 0 -- -- 45
2019-07-25 21:00:00 27 30 Noroeste 39 Noroeste 0 -- -- 34
2019-07-25 20:00:00 30.7 25 Oeste 40 Oeste 0 -- -- 28
2019-07-25 19:00:00 31.4 23 Oeste 43 Oeste 0 -- -- 27
2019-07-25 18:00:00 31.7 24 Oeste 43 Oeste 0 -- -- 27
2019-07-25 17:00:00 30.2 31 Oeste 47 Sudoeste 0 -- -- 28
2019-07-25 16:00:00 31 25 Oeste 46 Oeste 0 -- -- 29
2019-07-25 15:00:00 32 28 Oeste 44 Sudoeste 0 -- -- 29
2019-07-25 14:00:00 31.2 22 Sudoeste 44 Sudoeste 0 -- -- 31
2019-07-25 13:00:00 29.4 22 Sudoeste 39 Oeste 0 -- -- 33
2019-07-25 12:00:00 29.1 10 Sudoeste 21 Sudoeste 0 -- -- 39
2019-07-25 11:00:00 26.5 13 Sudoeste 20 Sudoeste 0 -- -- 43
2019-07-25 10:00:00 24.2 11 Sur 19 Sudoeste 0 -- -- 52
2019-07-25 09:00:00 22.1 12 Sudoeste 17 Sudoeste 0 -- -- 58
2019-07-25 08:00:00 17.9 10 Sudoeste 15 Sudoeste 0 -- -- 67
2019-07-25 07:00:00 17.6 12 Sudoeste 17 Sudoeste 0 -- -- 65
2019-07-25 06:00:00 17.5 15 Sudoeste 17 Sudoeste 0 -- -- 70
2019-07-25 05:00:00 18.3 13 Sudoeste 16 Sudoeste 0 -- -- 68
2019-07-25 04:00:00 21 13 Oeste 22 Oeste 0 -- -- 54
2019-07-25 03:00:00 21.8 19 Oeste 25 Oeste 0 -- -- 51
2019-07-25 02:00:00 22.3 17 Oeste 23 Oeste 0 -- -- 48
2019-07-25 01:00:00 23.4 12 Oeste 22 Oeste 0 -- -- 45
2019-07-25 00:00:00 22.8 11 Oeste 14 Oeste 0 -- -- 47
2019-07-24 23:00:00 24.3 12 Oeste 15 Oeste 0 -- -- 42
2019-07-24 22:00:00 25.6 13 Oeste 19 Oeste 0 -- -- 38
2019-07-24 21:00:00 29.3 8 Sudoeste 22 Sudoeste 0 -- -- 35
2019-07-24 20:00:00 32.4 14 Oeste 36 Sudoeste 0 -- -- 29
2019-07-24 19:00:00 33.1 22 Sudoeste 40 Sudoeste 0 -- -- 28
2019-07-24 18:00:00 32.8 19 Sudoeste 40 Oeste 0 -- -- 29
2019-07-24 17:00:00 33.2 18 Sudoeste 42 Sudoeste 0 -- -- 29
2019-07-24 16:00:00 33.1 17 Oeste 36 Sudoeste 0 -- -- 30
2019-07-24 15:00:00 32.1 17 Sudoeste 31 Sudoeste 0 -- -- 31
2019-07-24 14:00:00 32 15 Sur 28 Sudoeste 0 -- -- 34
2019-07-24 13:00:00 30.5 12 Sur 22 Sur 0 -- -- 37
2019-07-24 12:00:00 28.5 13 Sur 25 Sur 0 -- -- 41
2019-07-24 11:00:00 26 8 Sudeste 18 Sur 0 -- -- 51
2019-07-24 10:00:00 23.5 9 Sudeste 17 Sudeste 0 -- -- 61
2019-07-24 09:00:00 20 10 Sudeste 14 Este 0 -- -- 71
2019-07-24 08:00:00 16.9 8 Nordeste 15 Noroeste 0 -- -- 88
2019-07-24 07:00:00 17.3 8 Sudeste 17 Sudeste 0 -- -- 79
2019-07-24 06:00:00 17.2 14 Sudeste 17 Sudeste 0 -- -- 80
2019-07-24 05:00:00 17.7 12 Sudeste 19 Este 0 -- -- 75
2019-07-24 04:00:00 18.1 17 Sudeste 21 Sudeste 0 -- -- 74
2019-07-24 03:00:00 18.7 7 Sudeste 19 Sudeste 0 -- -- 71
2019-07-24 02:00:00 19.9 17 Sudeste 28 Sudeste 0 -- -- 65
2019-07-24 01:00:00 21.3 3 Sudeste 27 Sudoeste 0 -- -- 59
2019-07-24 00:00:00 20.7 17 Sudeste 50 Sur 0 -- -- 68
2019-07-23 23:00:00 21.8 35 Sur 58 Sur 0 -- -- 66
2019-07-23 22:00:00 22.1 10 Este 32 Este 0 -- -- 65
2019-07-23 21:00:00 22.3 17 Este 44 Sur 3.9 -- -- 64
2019-07-23 20:00:00 20.7 33 Sur 70 Sur 1.8 -- -- 44
2019-07-23 19:00:00 31.4 22 Sudeste 34 Este 0 -- -- 31
2019-07-23 18:00:00 33.8 12 Sudoeste 32 Sudoeste 0 -- -- 28
2019-07-23 17:00:00 33.5 17 Sudoeste 41 Sudoeste 0 -- -- 29
2019-07-23 16:00:00 33.2 9 Oeste 23 Sudoeste 0 -- -- 30
2019-07-23 15:00:00 31.1 8 Sudoeste 30 Sudoeste 0 -- -- 36
2019-07-23 14:00:00 28.3 17 Sudoeste 37 Sudoeste 0 -- -- 41
2019-07-23 13:00:00 27.1 18 Sudoeste 26 Sudoeste 0 -- -- 42
2019-07-23 12:00:00 27.2 12 Sur 20 Sur 0 -- -- 44
2019-07-23 11:00:00 24.5 11 Nordeste 19 Este 0 -- -- 50
2019-07-23 10:00:00 23.7 12 Este 44 Sudoeste 0 -- -- 53
2019-07-23 09:00:00 21.6 31 Sudoeste 46 Sudoeste 0 -- -- 58
2019-07-23 08:00:00 20.4 19 Sudoeste 28 Sur 0 -- -- 64
2019-07-23 07:00:00 18.6 10 Sudoeste 14 Sudoeste 0 -- -- 69
2019-07-23 06:00:00 19.7 4 Sudeste 33 Sudoeste 0 -- -- 62
2019-07-23 05:00:00 19.2 2 Nordeste 28 Este 0 -- -- 65
2019-07-23 04:00:00 20.8 10 Sur 20 Sur 0 -- -- 59
2019-07-23 03:00:00 18.9 8 Sur 15 Sur 0 -- -- 68
2019-07-23 02:00:00 19.1 14 Sudoeste 23 Nordeste 0 -- -- 68
2019-07-23 01:00:00 20.2 18 Nordeste 28 Norte 0 -- -- 61
2019-07-23 00:00:00 20.7 24 Norte 33 Norte 0 -- -- 56
2019-07-22 23:00:00 21.2 22 Noroeste 31 Norte 0 -- -- 56
2019-07-22 22:00:00 23.3 18 Noroeste 25 Noroeste 0 -- -- 50
2019-07-22 21:00:00 23.6 19 Norte 51 Norte 0.2 -- -- 47
2019-07-22 20:00:00 23.4 29 Sur 45 Sudoeste 0.2 -- -- 58
2019-07-22 19:00:00 31.2 17 Sudeste 33 Sudeste 0 -- -- 26
2019-07-22 18:00:00 33.1 4 Norte 30 Oeste 0 -- -- 27
2019-07-22 17:00:00 34.2 9 Nordeste 19 Nordeste 0 -- -- 23
2019-07-22 16:00:00 35.4 8 Norte 23 Este 0 -- -- 24
2019-07-22 15:00:00 35.6 5 Este 22 Nordeste 0 -- -- 25
2019-07-22 14:00:00 33.3 10 Nordeste 19 Este 0 -- -- 27
2019-07-22 13:00:00 32.2 8 Este 17 Este 0 -- -- 29
2019-07-22 12:00:00 30.2 9 Este 26 Este 0 -- -- 33
2019-07-22 11:00:00 27.7 15 Este 27 Este 0 -- -- 40
2019-07-22 10:00:00 23.2 17 Este 22 Este 0 -- -- 58
2019-07-22 09:00:00 20.2 16 Este 21 Este 0 -- -- 72
2019-07-22 08:00:00 17.2 13 Este 17 Nordeste 0 -- -- 91
2019-07-22 07:00:00 15.5 12 Nordeste 19 Nordeste 0 -- -- 95
2019-07-22 06:00:00 16.5 16 Este 21 Este 0 -- -- 94
2019-07-22 05:00:00 16.5 18 Este 22 Este 0 -- -- 94
2019-07-22 04:00:00 16.9 17 Este 22 Este 0 -- -- 92
2019-07-22 03:00:00 17.7 21 Este 26 Este 0 -- -- 89
2019-07-22 02:00:00 18.2 19 Este 27 Este 0 -- -- 87
2019-07-22 01:00:00 19 23 Este 30 Este 0 -- -- 83
2019-07-22 00:00:00 19.7 21 Nordeste 27 Nordeste 0 -- -- 81
2019-07-21 23:00:00 22.2 17 Nordeste 29 Este 0 -- -- 67
2019-07-21 22:00:00 26 19 Nordeste 28 Nordeste 0 -- -- 46
2019-07-21 21:00:00 30.8 7 Norte 12 Nordeste 0 -- -- 26
2019-07-21 20:00:00 32.3 6 Norte 15 Noroeste 0 -- -- 25
2019-07-21 19:00:00 33 8 Nordeste 21 Norte 0 -- -- 26
2019-07-21 18:00:00 32 10 Noroeste 23 Nordeste 0 -- -- 27
2019-07-21 17:00:00 33.2 6 Noroeste 22 Noroeste 0 -- -- 27
2019-07-21 16:00:00 31.8 8 Norte 23 Nordeste 0 -- -- 30
2019-07-21 15:00:00 31.2 8 Norte 25 Norte 0 -- -- 36
2019-07-21 14:00:00 29.3 13 Nordeste 25 Nordeste 0 -- -- 41
2019-07-21 13:00:00 27.6 12 Nordeste 22 Nordeste 0 -- -- 48
2019-07-21 12:00:00 25.5 10 Nordeste 20 Nordeste 0 -- -- 53
2019-07-21 11:00:00 23.6 9 Nordeste 19 Este 0 -- -- 60
2019-07-21 10:00:00 20 12 Este 20 Este 0 -- -- 72
2019-07-21 09:00:00 17.1 17 Este 64 Este 0 -- -- 83
2019-07-21 08:00:00 15.4 17 Este 23 Este 0 -- -- 95
2019-07-21 07:00:00 14.4 15 Nordeste 28 Este 0 -- -- 96
2019-07-21 06:00:00 14.9 24 Este 33 Este 0 -- -- 94
2019-07-21 05:00:00 15.3 28 Este 40 Este 0 -- -- 94
2019-07-21 04:00:00 15.6 29 Este 37 Este 0 -- -- 92
2019-07-21 03:00:00 15.9 27 Este 38 Nordeste 0 -- -- 92
2019-07-21 02:00:00 16 27 Este 39 Este 0 -- -- 92
2019-07-21 01:00:00 16.4 31 Este 40 Nordeste 0 -- -- 90
2019-07-21 00:00:00 17.1 24 Nordeste 38 Nordeste 0 -- -- 89
2019-07-20 23:00:00 18.6 22 Nordeste 30 Nordeste 0 -- -- 82
2019-07-20 22:00:00 21.5 22 Nordeste 31 Nordeste 0 -- -- 71
2019-07-20 21:00:00 29.2 13 Oeste 31 Oeste 0 -- -- 28
2019-07-20 20:00:00 31.5 14 Noroeste 33 Oeste 0 -- -- 25
2019-07-20 19:00:00 32.2 15 Oeste 29 Oeste 0 -- -- 27
2019-07-20 18:00:00 32.6 14 Oeste 30 Noroeste 0 -- -- 30
2019-07-20 17:00:00 32.1 15 Oeste 30 Oeste 0 -- -- 32
2019-07-20 16:00:00 31.2 7 Oeste 31 Oeste 0 -- -- 34
2019-07-20 15:00:00 30 10 Oeste 32 Oeste 0 -- -- 37
2019-07-20 14:00:00 28.9 13 Oeste 22 Oeste 0 -- -- 41
2019-07-20 13:00:00 27.5 8 Sudoeste 17 Oeste 0 -- -- 45
2019-07-20 12:00:00 25.2 6 Norte 15 Norte 0 -- -- 54
2019-07-20 11:00:00 23.1 7 Norte 14 Nordeste 0 -- -- 61
2019-07-20 10:00:00 20.9 7 Norte 14 Nordeste 0 -- -- 65
2019-07-20 09:00:00 19.3 10 Nordeste 14 Nordeste 0 -- -- 66
2019-07-20 08:00:00 16.3 8 Norte 12 Norte 0 -- -- 78
2019-07-20 07:00:00 14.6 6 Noroeste 8 Norte 0 -- -- 81
2019-07-20 06:00:00 16 4 Noroeste 14 Este 0 -- -- 74
2019-07-20 05:00:00 17.8 12 Este 18 Este 0 -- -- 68
2019-07-20 04:00:00 18.6 14 Este 22 Este 0 -- -- 64
2019-07-20 03:00:00 18.6 15 Este 19 Este 0 -- -- 66
2019-07-20 02:00:00 19.7 13 Nordeste 20 Nordeste 0 -- -- 64
2019-07-20 01:00:00 22 12 Norte 30 Norte 0 -- -- 41
2019-07-20 00:00:00 24.2 15 Noroeste 22 Norte 0 -- -- 39
2019-07-19 23:00:00 24.4 11 Noroeste 15 Noroeste 0 -- -- 37
2019-07-19 22:00:00 26 13 Noroeste 16 Oeste 0 -- -- 32
2019-07-19 21:00:00 30.5 12 Oeste 27 Noroeste 0 -- -- 27
2019-07-19 20:00:00 31.8 19 Oeste 41 Oeste 0 -- -- 26
2019-07-19 19:00:00 32.2 18 Oeste 39 Oeste 0 -- -- 26
2019-07-19 18:00:00 32.9 20 Oeste 32 Oeste 0 -- -- 27
2019-07-19 17:00:00 33 17 Oeste 33 Oeste 0 -- -- 27
2019-07-19 16:00:00 32.2 17 Oeste 42 Sudoeste 0 -- -- 28
2019-07-19 15:00:00 31.6 12 Oeste 29 Sudoeste 0 -- -- 29
2019-07-19 14:00:00 31.2 3 Sur 21 Sur 0 -- -- 30
2019-07-19 13:00:00 29.9 6 Sur 16 Sur 0 -- -- 34
2019-07-19 12:00:00 26.8 9 Sudeste 17 Sudeste 0 -- -- 42
2019-07-19 11:00:00 23.8 11 Sudeste 21 Este 0 -- -- 50
2019-07-19 10:00:00 20 10 Este 19 Este 0 -- -- 59
2019-07-19 09:00:00 17.6 13 Este 23 Este 0 -- -- 65
2019-07-19 08:00:00 15.2 20 Este 24 Este 0 -- -- 72
2019-07-19 07:00:00 13.7 19 Este 25 Este 0 -- -- 75
2019-07-19 06:00:00 14.5 21 Este 24 Este 0 -- -- 73
2019-07-19 05:00:00 15 19 Este 28 Este 0 -- -- 71
2019-07-19 04:00:00 15.8 23 Este 33 Este 0 -- -- 72
2019-07-19 03:00:00 16.7 23 Este 35 Este 0 -- -- 73
2019-07-19 02:00:00 16.8 23 Este 35 Este 0 -- -- 73
2019-07-19 01:00:00 17.7 25 Este 36 Este 0 -- -- 68
2019-07-19 00:00:00 18.5 22 Este 32 Este 0 -- -- 62